Time;durP1;ratioP1;P1;durP2;ratioP2;P2;SDS_P1;SDS_P2;PMS_P1;PMS_P2;Temp;Humidity;BMP_temperature;BMP_pressure;BME280_temperature;BME280_humidity;BME280_pressure;Samples;Min_cycle;Max_cycle;Signal;HPM_P1;HPM_P2
2023/08/08 00:01:28;;;;;;;4.05;2.97;;;;;;;;;;5040635;28;21433;-75
2023/08/08 00:03:54;;;;;;;5.28;2.70;;;;;;;;;;5060652;28;20055;-75
2023/08/08 00:06:20;;;;;;;8.30;3.38;;;;;;;;;;5042334;28;20562;-75
2023/08/08 00:08:46;;;;;;;7.75;2.85;;;;;;;;;;5061741;28;20585;-75
2023/08/08 00:11:12;;;;;;;5.63;3.03;;;;;;;;;;5061481;28;20054;-75
2023/08/08 00:13:39;;;;;;;8.63;2.85;;;;;;;;;;5058685;28;20667;-75
2023/08/08 00:16:05;;;;;;;6.30;3.13;;;;;;;;;;5062477;28;20078;-75
2023/08/08 00:18:31;;;;;;;7.07;3.28;;;;;;;;;;5057249;28;20058;-76
2023/08/08 00:20:57;;;;;;;8.20;2.80;;;;;;;;;;5061321;28;20560;-75
2023/08/08 00:23:23;;;;;;;6.75;2.97;;;;;;;;;;5045365;28;20943;-76
2023/08/08 00:25:50;;;;;;;7.55;3.10;;;;;;;;;;5077106;28;20582;-75
2023/08/08 00:28:17;;;;;;;7.05;2.60;;;;;;;;;;5046010;28;20055;-76
2023/08/08 00:30:43;;;;;;;10.65;3.00;;;;;;;;;;5038620;28;20069;-75
2023/08/08 00:33:09;;;;;;;4.88;3.40;;;;;;;;;;5060024;28;20059;-75
2023/08/08 00:35:35;;;;;;;10.15;3.28;;;;;;;;;;5038033;27;20060;-75
2023/08/08 00:38:02;;;;;;;4.90;3.10;;;;;;;;;;5061508;28;20035;-75
2023/08/08 00:40:28;;;;;;;4.13;2.97;;;;;;;;;;5059355;28;20267;-75
2023/08/08 00:42:54;;;;;;;12.32;3.65;;;;;;;;;;5059510;28;20180;-75
2023/08/08 00:45:20;;;;;;;7.10;3.15;;;;;;;;;;5060829;28;20083;-75
2023/08/08 00:47:46;;;;;;;9.98;3.67;;;;;;;;;;5065524;28;20051;-75
2023/08/08 00:50:12;;;;;;;7.40;3.05;;;;;;;;;;5072435;28;20047;-75
2023/08/08 00:52:39;;;;;;;7.78;3.80;;;;;;;;;;5076074;28;20075;-75
2023/08/08 00:55:06;;;;;;;7.35;3.15;;;;;;;;;;5058952;28;20051;-75
2023/08/08 00:57:32;;;;;;;6.18;3.33;;;;;;;;;;5078605;28;20054;-75
2023/08/08 00:59:58;;;;;;;8.13;3.33;;;;;;;;;;5042819;28;20055;-75
2023/08/08 01:02:24;;;;;;;7.80;3.42;;;;;;;;;;5041034;28;20552;-75
2023/08/08 01:04:50;;;;;;;10.57;3.28;;;;;;;;;;5043249;28;20048;-75
2023/08/08 01:07:22;;;;;;;9.13;4.38;;;;;;;;;;5061178;28;20314;-74
2023/08/08 01:09:51;;;;;;;10.05;4.22;;;;;;;;;;5077728;28;20066;-74
2023/08/08 01:12:18;;;;;;;5.47;3.42;;;;;;;;;;5058232;28;20052;-75
2023/08/08 01:14:45;;;;;;;14.07;4.20;;;;;;;;;;5044142;28;20119;-75
2023/08/08 01:17:12;;;;;;;10.70;3.72;;;;;;;;;;5061049;28;20319;-76
2023/08/08 01:19:38;;;;;;;14.15;3.88;;;;;;;;;;5056837;28;20052;-76
2023/08/08 01:22:15;;;;;;;12.55;3.22;;;;;;;;;;5059434;28;20061;-76
2023/08/08 01:24:43;;;;;;;10.88;4.00;;;;;;;;;;5075245;28;20473;-76
2023/08/08 01:27:09;;;;;;;6.20;3.28;;;;;;;;;;5042323;28;20051;-76
2023/08/08 01:29:35;;;;;;;5.25;3.30;;;;;;;;;;5059916;28;20043;-76
2023/08/08 01:32:01;;;;;;;9.32;3.58;;;;;;;;;;5046944;28;20458;-76
2023/08/08 01:34:27;;;;;;;10.05;3.40;;;;;;;;;;5078904;28;20565;-76
2023/08/08 01:36:58;;;;;;;10.73;3.35;;;;;;;;;;5087301;28;20048;-75
2023/08/08 01:39:26;;;;;;;5.28;2.95;;;;;;;;;;5080753;28;20044;-76
2023/08/08 01:41:53;;;;;;;6.72;3.22;;;;;;;;;;5075946;28;20545;-78
2023/08/08 01:44:19;;;;;;;6.22;3.30;;;;;;;;;;5058078;28;20047;-77
2023/08/08 01:46:45;;;;;;;9.02;3.53;;;;;;;;;;5076230;28;20051;-78
2023/08/08 01:49:11;;;;;;;5.82;2.75;;;;;;;;;;5041721;28;20135;-77
2023/08/08 01:51:38;;;;;;;10.02;3.38;;;;;;;;;;5058291;28;20079;-77
2023/08/08 01:54:04;;;;;;;7.20;3.72;;;;;;;;;;5057784;28;20056;-77
2023/08/08 01:56:30;;;;;;;7.65;2.90;;;;;;;;;;5064935;28;20051;-76
2023/08/08 01:58:56;;;;;;;7.22;3.33;;;;;;;;;;5065143;28;20051;-79
2023/08/08 02:01:22;;;;;;;6.40;3.00;;;;;;;;;;5051458;28;20657;-77
2023/08/08 02:03:48;;;;;;;8.02;2.88;;;;;;;;;;5045790;28;20055;-76
2023/08/08 02:06:15;;;;;;;6.13;3.10;;;;;;;;;;5063263;28;20056;-77
2023/08/08 02:08:41;;;;;;;9.25;3.33;;;;;;;;;;5065387;28;20112;-77
2023/08/08 02:11:07;;;;;;;10.05;3.42;;;;;;;;;;5085162;28;20156;-77
2023/08/08 02:13:33;;;;;;;8.68;3.70;;;;;;;;;;5099561;28;20063;-77
2023/08/08 02:15:59;;;;;;;5.70;2.67;;;;;;;;;;5075534;28;21909;-76
2023/08/08 02:18:25;;;;;;;7.28;3.53;;;;;;;;;;5070632;27;20977;-77
2023/08/08 02:20:51;;;;;;;6.97;3.50;;;;;;;;;;5067930;28;20411;-77
2023/08/08 02:23:18;;;;;;;6.68;4.22;;;;;;;;;;5060672;28;20184;-76
2023/08/08 02:25:44;;;;;;;9.05;3.80;;;;;;;;;;5060851;28;20056;-76
2023/08/08 02:28:10;;;;;;;7.35;3.60;;;;;;;;;;5062646;28;20461;-76
2023/08/08 02:30:38;;;;;;;9.27;4.00;;;;;;;;;;5055614;28;20048;-77
2023/08/08 02:33:04;;;;;;;7.00;3.92;;;;;;;;;;5060194;28;20055;-77
2023/08/08 02:35:30;;;;;;;9.38;3.97;;;;;;;;;;5060886;28;20052;-77
2023/08/08 02:37:56;;;;;;;5.57;3.47;;;;;;;;;;5056951;28;22105;-77
2023/08/08 02:40:23;;;;;;;11.32;3.53;;;;;;;;;;5057619;28;20087;-76
2023/08/08 02:42:49;;;;;;;11.43;3.92;;;;;;;;;;5059780;28;20137;-76
2023/08/08 02:45:19;;;;;;;4.70;3.13;;;;;;;;;;5058458;28;20055;-77
2023/08/08 02:47:45;;;;;;;9.00;3.15;;;;;;;;;;5063133;28;20079;-77
2023/08/08 02:50:11;;;;;;;7.03;3.15;;;;;;;;;;5061147;28;20118;-76
2023/08/08 02:52:37;;;;;;;5.72;3.10;;;;;;;;;;5064380;28;20130;-77
2023/08/08 02:55:09;;;;;;;7.38;2.92;;;;;;;;;;5065694;28;20118;-77
2023/08/08 02:57:35;;;;;;;9.10;3.08;;;;;;;;;;5061374;28;20044;-77
2023/08/08 03:00:02;;;;;;;8.82;3.38;;;;;;;;;;5061927;28;20059;-77
2023/08/08 03:02:28;;;;;;;6.97;2.97;;;;;;;;;;5061580;28;20055;-77
2023/08/08 03:04:54;;;;;;;9.90;3.45;;;;;;;;;;5056830;28;20052;-77
2023/08/08 03:07:20;;;;;;;11.93;2.67;;;;;;;;;;5021259;28;20048;-78
2023/08/08 03:09:46;;;;;;;11.50;3.00;;;;;;;;;;5061201;28;20498;-77
2023/08/08 03:12:13;;;;;;;7.47;2.80;;;;;;;;;;5061407;28;20228;-76
2023/08/08 03:14:39;;;;;;;6.43;3.15;;;;;;;;;;5060842;28;20048;-78
2023/08/08 03:17:05;;;;;;;12.32;3.53;;;;;;;;;;5058567;28;20059;-77
2023/08/08 03:19:32;;;;;;;9.70;3.65;;;;;;;;;;5042634;28;20056;-78
2023/08/08 03:21:58;;;;;;;6.03;3.47;;;;;;;;;;5060285;28;20518;-77
2023/08/08 03:24:24;;;;;;;10.70;3.40;;;;;;;;;;5059789;28;20056;-77
2023/08/08 03:26:53;;;;;;;12.45;3.70;;;;;;;;;;5060531;28;20079;-76
2023/08/08 03:29:19;;;;;;;5.35;2.95;;;;;;;;;;5061051;28;20499;-76
2023/08/08 03:31:45;;;;;;;12.93;3.72;;;;;;;;;;5059703;28;20048;-77
2023/08/08 03:34:11;;;;;;;6.45;3.33;;;;;;;;;;5055403;28;20292;-77
2023/08/08 03:36:37;;;;;;;9.77;3.13;;;;;;;;;;5061048;28;20056;-76
2023/08/08 03:39:03;;;;;;;6.70;3.47;;;;;;;;;;5062722;28;20139;-76
2023/08/08 03:41:29;;;;;;;6.35;3.42;;;;;;;;;;5063306;28;20052;-76
2023/08/08 03:43:56;;;;;;;6.38;3.00;;;;;;;;;;5059639;28;20098;-76
2023/08/08 03:46:23;;;;;;;10.18;3.22;;;;;;;;;;5057064;28;20141;-76
2023/08/08 03:48:49;;;;;;;8.18;3.22;;;;;;;;;;5057335;28;20336;-76
2023/08/08 03:51:15;;;;;;;8.98;2.80;;;;;;;;;;5041310;28;20198;-76
2023/08/08 03:53:41;;;;;;;3.15;2.63;;;;;;;;;;5052842;28;20056;-76
2023/08/08 03:56:07;;;;;;;5.45;2.95;;;;;;;;;;5043184;28;21379;-75
2023/08/08 03:58:33;;;;;;;7.38;2.38;;;;;;;;;;5038150;28;20165;-76
2023/08/08 04:00:59;;;;;;;5.93;2.67;;;;;;;;;;5056821;28;20059;-76
2023/08/08 04:03:27;;;;;;;7.53;2.67;;;;;;;;;;5057063;28;20048;-77
2023/08/08 04:05:53;;;;;;;5.88;2.40;;;;;;;;;;5059719;28;20761;-75
2023/08/08 04:08:19;;;;;;;12.52;2.85;;;;;;;;;;5059139;28;20446;-76
2023/08/08 04:10:47;;;;;;;4.07;2.30;;;;;;;;;;5062176;28;20577;-76
2023/08/08 04:13:13;;;;;;;7.32;2.55;;;;;;;;;;5061434;28;20062;-76
2023/08/08 04:15:39;;;;;;;7.18;2.45;;;;;;;;;;5061536;28;20185;-76
2023/08/08 04:18:08;;;;;;;7.63;2.40;;;;;;;;;;5063672;28;20105;-77
2023/08/08 04:20:34;;;;;;;11.30;2.63;;;;;;;;;;5061953;28;20573;-76
2023/08/08 04:23:01;;;;;;;4.70;2.08;;;;;;;;;;5064995;28;20081;-77
2023/08/08 04:25:27;;;;;;;9.00;2.80;;;;;;;;;;5068366;28;20056;-77
2023/08/08 04:27:54;;;;;;;7.70;3.75;;;;;;;;;;5066257;28;20113;-77
2023/08/08 04:30:20;;;;;;;6.35;2.47;;;;;;;;;;5068250;28;20105;-76
2023/08/08 04:32:46;;;;;;;7.35;2.53;;;;;;;;;;5067065;28;20066;-76
2023/08/08 04:35:12;;;;;;;8.77;2.63;;;;;;;;;;5065890;28;20096;-75
2023/08/08 04:37:38;;;;;;;4.43;2.17;;;;;;;;;;5065381;28;20499;-76
2023/08/08 04:40:05;;;;;;;7.03;2.47;;;;;;;;;;5062611;28;20458;-76
2023/08/08 04:42:31;;;;;;;8.18;2.30;;;;;;;;;;5080891;28;20047;-77
2023/08/08 04:44:57;;;;;;;8.93;2.40;;;;;;;;;;5081971;28;20043;-78
2023/08/08 04:47:23;;;;;;;9.05;2.67;;;;;;;;;;5062479;28;20050;-77
2023/08/08 04:49:49;;;;;;;8.55;2.50;;;;;;;;;;5063586;28;20055;-76
2023/08/08 04:52:15;;;;;;;7.10;2.33;;;;;;;;;;5045035;28;20039;-76
2023/08/08 04:54:41;;;;;;;4.00;2.30;;;;;;;;;;5065705;28;20056;-77
2023/08/08 04:57:07;;;;;;;7.50;2.45;;;;;;;;;;5063010;28;20051;-77
2023/08/08 04:59:33;;;;;;;9.95;2.60;;;;;;;;;;5059318;28;20058;-76
2023/08/08 05:01:59;;;;;;;6.70;2.13;;;;;;;;;;5064271;28;20804;-76
2023/08/08 05:04:25;;;;;;;6.15;2.25;;;;;;;;;;5048590;28;20051;-76
2023/08/08 05:06:51;;;;;;;6.00;2.10;;;;;;;;;;5086946;28;20044;-76
2023/08/08 05:09:18;;;;;;;10.05;2.05;;;;;;;;;;5068218;28;20166;-77
2023/08/08 05:11:44;;;;;;;4.10;1.80;;;;;;;;;;5065658;28;20059;-75
2023/08/08 05:14:10;;;;;;;6.90;2.50;;;;;;;;;;5045645;28;20044;-77
2023/08/08 05:16:36;;;;;;;9.27;2.08;;;;;;;;;;5050394;28;20251;-77
2023/08/08 05:19:02;;;;;;;4.10;1.83;;;;;;;;;;5090196;27;20470;-76
2023/08/08 05:21:28;;;;;;;2.83;1.80;;;;;;;;;;5055175;28;20507;-76
2023/08/08 05:23:54;;;;;;;7.00;2.10;;;;;;;;;;5069489;28;20090;-78
2023/08/08 05:26:20;;;;;;;7.32;2.75;;;;;;;;;;5069078;28;20075;-78
2023/08/08 05:28:46;;;;;;;5.03;1.80;;;;;;;;;;5083216;28;20213;-78
2023/08/08 05:31:12;;;;;;;9.90;1.85;;;;;;;;;;5067411;28;20054;-76
2023/08/08 05:33:38;;;;;;;6.40;2.03;;;;;;;;;;5085536;28;20056;-77
2023/08/08 05:36:04;;;;;;;6.85;1.70;;;;;;;;;;5069354;28;20054;-75
2023/08/08 05:38:31;;;;;;;8.48;2.20;;;;;;;;;;5055555;28;20047;-76
2023/08/08 05:40:57;;;;;;;7.68;1.77;;;;;;;;;;5068847;28;20169;-76
2023/08/08 05:43:23;;;;;;;8.80;1.70;;;;;;;;;;5086645;28;20668;-76
2023/08/08 05:45:49;;;;;;;9.55;2.10;;;;;;;;;;5053994;28;20411;-76
2023/08/08 05:48:15;;;;;;;7.57;1.85;;;;;;;;;;5088451;28;20078;-77
2023/08/08 05:50:41;;;;;;;5.50;1.75;;;;;;;;;;5070032;28;20496;-77
2023/08/08 05:53:07;;;;;;;6.30;1.63;;;;;;;;;;5033482;28;20055;-76
2023/08/08 05:55:34;;;;;;;9.32;1.83;;;;;;;;;;5089116;28;20407;-76
2023/08/08 05:58:00;;;;;;;8.80;2.03;;;;;;;;;;5055372;28;20504;-77
2023/08/08 06:00:26;;;;;;;7.88;2.03;;;;;;;;;;5087949;28;20135;-78
2023/08/08 06:02:52;;;;;;;7.55;2.10;;;;;;;;;;5072628;28;20043;-78
2023/08/08 06:05:18;;;;;;;9.48;2.20;;;;;;;;;;5052959;27;20150;-77
2023/08/08 06:07:44;;;;;;;10.35;2.38;;;;;;;;;;5073668;28;20119;-78
2023/08/08 06:10:10;;;;;;;9.07;2.05;;;;;;;;;;5078429;28;20052;-77
2023/08/08 06:12:37;;;;;;;12.02;2.20;;;;;;;;;;5057748;28;20074;-79
2023/08/08 06:15:03;;;;;;;15.25;2.17;;;;;;;;;;5077747;28;20059;-77
2023/08/08 06:17:30;;;;;;;8.38;2.80;;;;;;;;;;5064157;28;20150;-79
2023/08/08 06:19:56;;;;;;;6.22;2.03;;;;;;;;;;5091940;28;20425;-78
2023/08/08 06:22:23;;;;;;;10.18;2.17;;;;;;;;;;5058714;28;20062;-79
2023/08/08 06:24:49;;;;;;;6.40;1.70;;;;;;;;;;5071236;28;20063;-77
2023/08/08 06:27:15;;;;;;;8.70;2.15;;;;;;;;;;5063952;28;20081;-77
2023/08/08 06:29:41;;;;;;;9.82;1.98;;;;;;;;;;5044290;28;20051;-78
2023/08/08 06:32:08;;;;;;;8.73;1.85;;;;;;;;;;5056461;28;20051;-78
2023/08/08 06:34:34;;;;;;;5.85;1.80;;;;;;;;;;5059633;28;20398;-77
2023/08/08 06:37:00;;;;;;;9.32;1.70;;;;;;;;;;5072034;28;20073;-78
2023/08/08 06:39:26;;;;;;;6.63;2.00;;;;;;;;;;5070602;28;20522;-77
2023/08/08 06:41:52;;;;;;;10.80;3.55;;;;;;;;;;5070259;28;20054;-77
2023/08/08 06:44:18;;;;;;;6.45;1.80;;;;;;;;;;5072814;28;20075;-78
2023/08/08 06:46:44;;;;;;;8.40;2.20;;;;;;;;;;5074767;28;20047;-76
2023/08/08 06:49:10;;;;;;;10.65;2.30;;;;;;;;;;5072644;28;20043;-77
2023/08/08 06:51:36;;;;;;;9.73;1.88;;;;;;;;;;5072685;28;20051;-76
2023/08/08 06:54:03;;;;;;;5.80;1.70;;;;;;;;;;5049698;28;20055;-77
2023/08/08 06:56:29;;;;;;;9.10;1.50;;;;;;;;;;5091084;28;20063;-77
2023/08/08 06:58:55;;;;;;;19.27;2.58;;;;;;;;;;5068350;28;20075;-77
2023/08/08 07:01:21;;;;;;;10.35;3.08;;;;;;;;;;5053264;28;20055;-80
2023/08/08 07:03:47;;;;;;;7.32;2.28;;;;;;;;;;5076430;28;20132;-79
2023/08/08 07:06:14;;;;;;;8.48;1.40;;;;;;;;;;5058313;28;20058;-79
2023/08/08 07:08:40;;;;;;;8.63;1.75;;;;;;;;;;5073670;27;20044;-78
2023/08/08 07:11:06;;;;;;;5.97;1.27;;;;;;;;;;5075615;27;20039;-80
2023/08/08 07:13:32;;;;;;;7.47;1.23;;;;;;;;;;5077032;28;20048;-79
2023/08/08 07:15:58;;;;;;;7.28;1.33;;;;;;;;;;5075416;28;20059;-80
2023/08/08 07:18:24;;;;;;;9.98;1.52;;;;;;;;;;5074620;28;20060;-80
2023/08/08 07:20:50;;;;;;;6.10;1.45;;;;;;;;;;5066039;28;20062;-80
2023/08/08 07:23:17;;;;;;;9.52;1.60;;;;;;;;;;5071841;28;20044;-79
2023/08/08 07:25:43;;;;;;;7.57;1.20;;;;;;;;;;5087528;27;20077;-79
2023/08/08 07:28:09;;;;;;;4.40;1.20;;;;;;;;;;5056638;28;20420;-80
2023/08/08 07:30:35;;;;;;;5.22;1.60;;;;;;;;;;5071246;28;20488;-80
2023/08/08 07:33:02;;;;;;;6.45;1.67;;;;;;;;;;5056459;28;20060;-79
2023/08/08 07:35:28;;;;;;;5.82;1.20;;;;;;;;;;5072073;28;20063;-80
2023/08/08 07:37:54;;;;;;;6.20;1.67;;;;;;;;;;5070355;28;20048;-76
2023/08/08 07:40:21;;;;;;;4.93;1.25;;;;;;;;;;5066512;28;20570;-76
2023/08/08 07:42:47;;;;;;;7.38;1.60;;;;;;;;;;5064322;28;20083;-76
2023/08/08 07:45:15;;;;;;;9.15;1.42;;;;;;;;;;5069363;28;20055;-76
2023/08/08 07:47:41;;;;;;;7.53;1.75;;;;;;;;;;5068208;28;20058;-76
2023/08/08 07:50:10;;;;;;;5.82;1.13;;;;;;;;;;5065854;28;20166;-76
2023/08/08 07:52:37;;;;;;;8.45;1.08;;;;;;;;;;5069791;28;20563;-76
2023/08/08 07:55:03;;;;;;;8.02;1.42;;;;;;;;;;5065121;28;20048;-76
2023/08/08 07:57:35;;;;;;;4.03;1.15;;;;;;;;;;5067223;28;20048;-75
2023/08/08 08:00:09;;;;;;;11.52;1.38;;;;;;;;;;5068399;28;20130;-76
2023/08/08 08:02:36;;;;;;;9.90;1.85;;;;;;;;;;5067693;28;20165;-77
2023/08/08 08:05:05;;;;;;;5.82;1.60;;;;;;;;;;5067784;28;20511;-75
2023/08/08 08:07:31;;;;;;;6.60;1.30;;;;;;;;;;5067000;28;20053;-75
2023/08/08 08:09:58;;;;;;;8.60;1.55;;;;;;;;;;5068310;28;20056;-79
2023/08/08 08:12:24;;;;;;;7.25;1.73;;;;;;;;;;5068242;28;20052;-80
2023/08/08 08:14:50;;;;;;;8.13;1.25;;;;;;;;;;5067915;28;20070;-80
2023/08/08 08:17:16;;;;;;;7.78;1.50;;;;;;;;;;5085916;28;20102;-80
2023/08/08 08:19:42;;;;;;;9.15;1.42;;;;;;;;;;5066481;28;20054;-75
2023/08/08 08:22:09;;;;;;;5.50;1.13;;;;;;;;;;5067808;28;20054;-76
2023/08/08 08:24:35;;;;;;;7.90;1.60;;;;;;;;;;5084538;28;20070;-75
2023/08/08 08:27:01;;;;;;;5.15;1.10;;;;;;;;;;5070097;28;20130;-76
2023/08/08 08:29:27;;;;;;;4.97;1.83;;;;;;;;;;5064738;28;20052;-76
2023/08/08 08:31:53;;;;;;;7.20;1.00;;;;;;;;;;5054815;28;20101;-76
2023/08/08 08:34:19;;;;;;;8.30;1.40;;;;;;;;;;5069839;28;20051;-76
2023/08/08 08:36:46;;;;;;;7.63;1.20;;;;;;;;;;5069945;28;21703;-80
2023/08/08 08:39:12;;;;;;;5.05;1.00;;;;;;;;;;5073643;28;20043;-79
2023/08/08 08:41:38;;;;;;;6.00;1.42;;;;;;;;;;5071121;28;20291;-79
2023/08/08 08:44:05;;;;;;;4.68;0.95;;;;;;;;;;5091233;27;20392;-79
2023/08/08 08:46:33;;;;;;;3.95;1.00;;;;;;;;;;5073239;28;20155;-80
2023/08/08 08:48:59;;;;;;;4.10;1.05;;;;;;;;;;5090434;28;20045;-80
2023/08/08 08:51:26;;;;;;;5.97;1.27;;;;;;;;;;5054792;28;20700;-81
2023/08/08 08:53:52;;;;;;;5.30;1.48;;;;;;;;;;5077553;28;20040;-80
2023/08/08 08:56:19;;;;;;;9.68;1.55;;;;;;;;;;5088618;28;20055;-80
2023/08/08 08:58:45;;;;;;;7.15;1.08;;;;;;;;;;5066513;28;20047;-75
2023/08/08 09:01:12;;;;;;;7.03;1.17;;;;;;;;;;5054716;28;20048;-76
2023/08/08 09:03:38;;;;;;;5.47;1.40;;;;;;;;;;5065327;28;20039;-75
2023/08/08 09:06:05;;;;;;;5.90;1.45;;;;;;;;;;5088016;28;20052;-76
2023/08/08 09:08:31;;;;;;;3.35;1.30;;;;;;;;;;5064903;28;20063;-76
2023/08/08 09:10:58;;;;;;;6.18;1.10;;;;;;;;;;5051923;28;20763;-76
2023/08/08 09:13:26;;;;;;;5.93;1.10;;;;;;;;;;5085481;28;20075;-75
2023/08/08 09:15:53;;;;;;;8.90;1.83;;;;;;;;;;5088089;28;20050;-75
2023/08/08 09:18:19;;;;;;;6.88;1.50;;;;;;;;;;5066339;28;20044;-75
2023/08/08 09:20:51;;;;;;;9.68;1.50;;;;;;;;;;5068741;28;20051;-78
2023/08/08 09:23:17;;;;;;;7.85;1.40;;;;;;;;;;5054229;28;20059;-76
2023/08/08 09:25:44;;;;;;;4.63;1.20;;;;;;;;;;5085388;28;20051;-75
2023/08/08 09:28:10;;;;;;;5.47;2.00;;;;;;;;;;5068336;28;20071;-76
2023/08/08 09:30:36;;;;;;;8.05;1.45;;;;;;;;;;5069633;28;20047;-75
2023/08/08 09:33:02;;;;;;;4.95;1.50;;;;;;;;;;5068401;28;20063;-77
2023/08/08 09:35:31;;;;;;;7.60;1.33;;;;;;;;;;5067273;28;20063;-76
2023/08/08 09:37:57;;;;;;;6.35;1.27;;;;;;;;;;5069466;28;20070;-77
2023/08/08 09:40:24;;;;;;;11.93;2.03;;;;;;;;;;5069186;28;20086;-76
2023/08/08 09:42:52;;;;;;;4.60;1.38;;;;;;;;;;5068224;28;20048;-76
2023/08/08 09:45:18;;;;;;;16.40;2.28;;;;;;;;;;5067401;28;20055;-76
2023/08/08 09:47:44;;;;;;;7.60;1.95;;;;;;;;;;5069408;28;20071;-76
2023/08/08 09:50:10;;;;;;;5.35;1.55;;;;;;;;;;5068483;28;20071;-75
2023/08/08 09:52:40;;;;;;;4.68;1.15;;;;;;;;;;5069672;28;20046;-76
2023/08/08 09:55:06;;;;;;;4.00;0.90;;;;;;;;;;5085667;28;20187;-75
2023/08/08 09:57:32;;;;;;;8.15;1.27;;;;;;;;;;5069658;28;20450;-76
2023/08/08 09:59:59;;;;;;;12.20;1.70;;;;;;;;;;5069058;28;20043;-76
2023/08/08 10:02:25;;;;;;;7.75;1.00;;;;;;;;;;5046872;28;20043;-75
2023/08/08 10:04:53;;;;;;;2.58;1.00;;;;;;;;;;5072861;28;21697;-76
2023/08/08 10:07:19;;;;;;;7.05;1.13;;;;;;;;;;5103211;28;20065;-78
2023/08/08 10:09:45;;;;;;;7.40;1.45;;;;;;;;;;5086733;28;20127;-78
2023/08/08 10:12:12;;;;;;;5.25;1.27;;;;;;;;;;5080743;28;20237;-78
2023/08/08 10:14:38;;;;;;;4.47;1.17;;;;;;;;;;5076345;28;20932;-79
2023/08/08 10:17:05;;;;;;;10.15;1.17;;;;;;;;;;5071342;28;20788;-79
2023/08/08 10:19:31;;;;;;;6.43;1.55;;;;;;;;;;5070971;28;20059;-78
2023/08/08 10:21:59;;;;;;;5.20;1.02;;;;;;;;;;5052947;28;20036;-78
2023/08/08 10:24:25;;;;;;;6.00;1.52;;;;;;;;;;5067376;28;20086;-78
2023/08/08 10:27:00;;;;;;;5.22;1.55;;;;;;;;;;5085205;28;20044;-78
2023/08/08 10:29:26;;;;;;;6.20;0.95;;;;;;;;;;5067901;28;20491;-79
2023/08/08 10:31:53;;;;;;;4.82;1.00;;;;;;;;;;5068796;28;20087;-79
2023/08/08 10:34:27;;;;;;;4.95;1.10;;;;;;;;;;5079162;28;20506;-79
2023/08/08 10:36:53;;;;;;;6.15;1.30;;;;;;;;;;5083980;28;20066;-79
2023/08/08 10:39:21;;;;;;;6.50;1.35;;;;;;;;;;5087120;27;20183;-79
2023/08/08 10:41:48;;;;;;;7.18;1.65;;;;;;;;;;5070253;28;20733;-78
2023/08/08 10:44:21;;;;;;;8.55;1.55;;;;;;;;;;5067353;28;20067;-75
2023/08/08 10:46:48;;;;;;;9.02;1.30;;;;;;;;;;5051326;28;20146;-77
2023/08/08 10:49:15;;;;;;;8.98;1.63;;;;;;;;;;5069518;28;20063;-77
2023/08/08 10:51:43;;;;;;;4.68;1.35;;;;;;;;;;5072578;28;20056;-78
2023/08/08 10:54:13;;;;;;;2.55;0.88;;;;;;;;;;5079938;27;20147;-77
2023/08/08 10:56:39;;;;;;;7.20;1.50;;;;;;;;;;5083298;28;20047;-76
2023/08/08 10:59:16;;;;;;;4.70;1.25;;;;;;;;;;5070774;28;20039;-82
2023/08/08 11:01:43;;;;;;;8.23;1.08;;;;;;;;;;5074145;28;20391;-81
2023/08/08 11:04:11;;;;;;;4.82;1.55;;;;;;;;;;5089197;28;20415;-84
2023/08/08 11:06:37;;;;;;;8.57;1.80;;;;;;;;;;5045208;28;20044;-78
2023/08/08 11:09:05;;;;;;;7.18;1.25;;;;;;;;;;5073673;28;20047;-78
2023/08/08 11:11:36;;;;;;;4.85;1.15;;;;;;;;;;5090573;28;20969;-77
2023/08/08 11:14:09;;;;;;;5.15;1.35;;;;;;;;;;5065030;28;20052;-78
2023/08/08 11:16:35;;;;;;;6.35;1.30;;;;;;;;;;5090160;28;20048;-77
2023/08/08 11:19:02;;;;;;;3.13;0.80;;;;;;;;;;5074594;28;20085;-78
2023/08/08 11:21:28;;;;;;;7.82;1.20;;;;;;;;;;5069496;28;20163;-78
2023/08/08 11:23:54;;;;;;;13.80;1.48;;;;;;;;;;5068263;27;20431;-78
2023/08/08 11:26:20;;;;;;;5.57;1.20;;;;;;;;;;5068202;27;20051;-78
2023/08/08 11:28:53;;;;;;;6.80;1.40;;;;;;;;;;5085922;27;20040;-77
2023/08/08 11:31:22;;;;;;;8.85;1.45;;;;;;;;;;5048419;28;20109;-78
2023/08/08 11:33:49;;;;;;;4.15;1.00;;;;;;;;;;5078639;28;20085;-79
2023/08/08 11:36:15;;;;;;;6.88;1.67;;;;;;;;;;5066303;28;20064;-79
2023/08/08 11:38:43;;;;;;;6.35;1.27;;;;;;;;;;5067532;28;20088;-78
2023/08/08 11:41:13;;;;;;;7.57;1.17;;;;;;;;;;5066068;27;20270;-79
2023/08/08 11:43:39;;;;;;;4.35;1.00;;;;;;;;;;5081961;27;20259;-79
2023/08/08 11:46:09;;;;;;;3.03;1.15;;;;;;;;;;5048852;28;20497;-78
2023/08/08 11:48:35;;;;;;;6.28;1.23;;;;;;;;;;5063621;28;21631;-78
2023/08/08 11:51:04;;;;;;;5.20;1.30;;;;;;;;;;5046318;28;20074;-77
2023/08/08 11:53:30;;;;;;;9.70;2.10;;;;;;;;;;5052013;28;21849;-82
2023/08/08 11:55:58;;;;;;;3.72;0.90;;;;;;;;;;5061972;28;20065;-81
2023/08/08 11:58:27;;;;;;;5.88;1.23;;;;;;;;;;5066828;28;20056;-81
2023/08/08 12:00:54;;;;;;;2.75;0.98;;;;;;;;;;5080138;28;20066;-82
2023/08/08 12:03:20;;;;;;;3.80;0.90;;;;;;;;;;5078779;28;20169;-80
2023/08/08 12:05:47;;;;;;;8.07;1.15;;;;;;;;;;5061869;28;20541;-80
2023/08/08 12:08:15;;;;;;;4.32;0.93;;;;;;;;;;5067044;28;20039;-81
2023/08/08 12:10:47;;;;;;;16.38;2.15;;;;;;;;;;5067673;28;20052;-82
2023/08/08 12:13:14;;;;;;;10.85;1.40;;;;;;;;;;5062442;28;20101;-82
2023/08/08 12:15:40;;;;;;;6.68;1.45;;;;;;;;;;5061836;28;20057;-80
2023/08/08 12:18:06;;;;;;;5.70;1.42;;;;;;;;;;5071439;28;20047;-81
2023/08/08 12:20:32;;;;;;;5.65;1.38;;;;;;;;;;5052277;28;20393;-82
2023/08/08 12:22:59;;;;;;;4.28;1.08;;;;;;;;;;5066423;28;20063;-82
2023/08/08 12:25:26;;;;;;;6.82;1.80;;;;;;;;;;5064672;28;20052;-82
2023/08/08 12:27:52;;;;;;;6.25;1.30;;;;;;;;;;5086081;28;20055;-82
2023/08/08 12:30:18;;;;;;;3.70;1.42;;;;;;;;;;5050465;28;20055;-81
2023/08/08 12:32:44;;;;;;;4.75;1.67;;;;;;;;;;5061938;28;20107;-83
2023/08/08 12:35:10;;;;;;;6.25;1.20;;;;;;;;;;5068451;28;20930;-82
2023/08/08 12:37:36;;;;;;;7.35;1.40;;;;;;;;;;5063461;27;20104;-81
2023/08/08 12:40:03;;;;;;;6.25;1.20;;;;;;;;;;5060956;28;20047;-81
2023/08/08 12:42:29;;;;;;;6.10;1.30;;;;;;;;;;5053825;28;20054;-82
2023/08/08 12:44:55;;;;;;;7.82;1.45;;;;;;;;;;5080146;27;20824;-82
2023/08/08 12:47:21;;;;;;;7.13;1.08;;;;;;;;;;5065132;28;20416;-83
2023/08/08 12:49:48;;;;;;;6.32;1.33;;;;;;;;;;5059804;28;20919;-85
2023/08/08 12:52:14;;;;;;;5.95;1.27;;;;;;;;;;5082842;28;20103;-76
2023/08/08 12:54:40;;;;;;;6.20;1.15;;;;;;;;;;5062267;28;20806;-83
2023/08/08 12:57:06;;;;;;;9.98;1.65;;;;;;;;;;5063417;28;20104;-82
2023/08/08 12:59:32;;;;;;;4.82;1.40;;;;;;;;;;5062045;28;20134;-83
2023/08/08 13:01:58;;;;;;;9.32;1.17;;;;;;;;;;5040112;28;20108;-77
2023/08/08 13:04:25;;;;;;;9.90;1.40;;;;;;;;;;5064766;28;21684;-82
2023/08/08 13:06:54;;;;;;;3.55;0.98;;;;;;;;;;5055296;28;20176;-82
2023/08/08 13:09:23;;;;;;;2.95;1.10;;;;;;;;;;5058088;28;20062;-84
2023/08/08 13:11:49;;;;;;;6.75;1.30;;;;;;;;;;5034484;28;20043;-82
2023/08/08 13:14:16;;;;;;;7.25;1.70;;;;;;;;;;5061800;28;20616;-83
2023/08/08 13:16:42;;;;;;;9.80;1.45;;;;;;;;;;5046075;28;20059;-83
2023/08/08 13:19:08;;;;;;;5.93;1.13;;;;;;;;;;5050810;28;20059;-82
2023/08/08 13:21:34;;;;;;;6.15;1.15;;;;;;;;;;5063457;28;20062;-82
2023/08/08 13:24:00;;;;;;;5.88;1.55;;;;;;;;;;5070976;28;20054;-83
2023/08/08 13:26:27;;;;;;;7.38;1.63;;;;;;;;;;5083671;28;20051;-82
2023/08/08 13:28:53;;;;;;;7.15;1.60;;;;;;;;;;5066161;28;20040;-83
2023/08/08 13:31:19;;;;;;;8.15;1.90;;;;;;;;;;5079754;28;20132;-82
2023/08/08 13:33:45;;;;;;;7.43;1.33;;;;;;;;;;5065332;28;20059;-82
2023/08/08 13:36:11;;;;;;;7.82;1.65;;;;;;;;;;5078395;28;20052;-83
2023/08/08 13:38:37;;;;;;;9.65;1.45;;;;;;;;;;5045768;28;20564;-82
2023/08/08 13:41:03;;;;;;;6.72;1.42;;;;;;;;;;5048857;28;20048;-83
2023/08/08 13:43:30;;;;;;;4.13;1.17;;;;;;;;;;5070260;28;20040;-81
2023/08/08 13:45:56;;;;;;;6.50;1.20;;;;;;;;;;5071034;28;20634;-80
2023/08/08 13:48:22;;;;;;;12.60;1.60;;;;;;;;;;5037612;28;20053;-81
2023/08/08 13:50:51;;;;;;;6.45;1.30;;;;;;;;;;5064538;28;20058;-82
2023/08/08 13:53:17;;;;;;;9.50;1.55;;;;;;;;;;5066855;28;20228;-81
2023/08/08 13:55:44;;;;;;;5.43;1.48;;;;;;;;;;5066112;28;20048;-82
2023/08/08 13:58:10;;;;;;;6.43;1.60;;;;;;;;;;5045885;28;20047;-81
2023/08/08 14:00:36;;;;;;;8.18;1.80;;;;;;;;;;5084237;28;20076;-83
2023/08/08 14:03:03;;;;;;;6.13;1.45;;;;;;;;;;5055907;28;20047;-83
2023/08/08 14:05:30;;;;;;;7.05;1.65;;;;;;;;;;5068274;28;20445;-82
2023/08/08 14:07:56;;;;;;;9.13;1.38;;;;;;;;;;5056713;28;20051;-81
2023/08/08 14:10:22;;;;;;;6.93;1.70;;;;;;;;;;5071289;28;22290;-82
2023/08/08 14:12:48;;;;;;;10.82;1.38;;;;;;;;;;5054396;28;20054;-82
2023/08/08 14:15:14;;;;;;;7.40;1.15;;;;;;;;;;5056308;28;20818;-81
2023/08/08 14:17:40;;;;;;;7.80;1.52;;;;;;;;;;5089589;28;20259;-82
2023/08/08 14:20:07;;;;;;;3.45;1.10;;;;;;;;;;5056145;28;20108;-82
2023/08/08 14:22:34;;;;;;;5.57;1.27;;;;;;;;;;5069239;28;20420;-83
2023/08/08 14:25:00;;;;;;;7.38;1.10;;;;;;;;;;5055830;27;20187;-83
2023/08/08 14:27:27;;;;;;;6.80;1.30;;;;;;;;;;5089896;28;20067;-83
2023/08/08 14:29:53;;;;;;;5.70;1.48;;;;;;;;;;5050683;27;20072;-82
2023/08/08 14:32:19;;;;;;;2.55;0.90;;;;;;;;;;5065040;28;20506;-82
2023/08/08 14:34:45;;;;;;;3.53;0.88;;;;;;;;;;5067885;28;20101;-81
2023/08/08 14:37:11;;;;;;;4.25;1.42;;;;;;;;;;5064667;28;20536;-84